Time;durP1;ratioP1;P1;durP2;ratioP2;P2;SDS_P1;SDS_P2;PMS_P1;PMS_P2;Temp;Humidity;BMP_temperature;BMP_pressure;BME280_temperature;BME280_humidity;BME280_pressure;Samples;Min_cycle;Max_cycle;Signal;HPM_P1;HPM_P2
2023/06/21 00:00:38;;;;;;;3.45;2.83;;;20.70;56.60;;;;;;5048362;28;20060;-74
2023/06/21 00:03:07;;;;;;;3.40;2.28;;;20.70;56.70;;;;;;5060638;28;20040;-74
2023/06/21 00:05:33;;;;;;;2.60;2.40;;;20.70;56.80;;;;;;5063670;28;20151;-73
2023/06/21 00:08:03;;;;;;;2.95;2.22;;;20.60;56.70;;;;;;5060666;28;20146;-74
2023/06/21 00:10:30;;;;;;;2.72;2.35;;;20.60;56.80;;;;;;5064369;28;20063;-71
2023/06/21 00:12:56;;;;;;;3.13;2.25;;;20.60;56.90;;;;;;5063423;28;20382;-74
2023/06/21 00:15:23;;;;;;;3.65;2.60;;;20.50;56.90;;;;;;5055865;28;20133;-75
2023/06/21 00:17:49;;;;;;;3.58;2.35;;;20.50;57.60;;;;;;5057332;28;20044;-73
2023/06/21 00:20:16;;;;;;;4.60;1.95;;;20.50;57.10;;;;;;5057588;28;20037;-76
2023/06/21 00:22:46;;;;;;;5.55;2.22;;;20.40;57.10;;;;;;5060057;28;20044;-74
2023/06/21 00:25:14;;;;;;;3.55;1.92;;;20.40;57.10;;;;;;5050941;28;20544;-73
2023/06/21 00:27:42;;;;;;;3.08;2.40;;;20.30;57.00;;;;;;5056687;28;20517;-74
2023/06/21 00:30:09;;;;;;;2.88;2.08;;;20.30;57.10;;;;;;5061995;28;20495;-74
2023/06/21 00:32:38;;;;;;;2.83;2.10;;;20.30;57.20;;;;;;5061599;28;20052;-73
2023/06/21 00:35:07;;;;;;;2.63;2.03;;;20.20;57.10;;;;;;5051298;28;20044;-72
2023/06/21 00:37:34;;;;;;;2.30;2.10;;;20.20;57.20;;;;;;5040507;28;20037;-74
2023/06/21 00:40:03;;;;;;;2.70;2.30;;;20.10;57.10;;;;;;5044191;28;20490;-73
2023/06/21 00:42:32;;;;;;;3.97;2.28;;;20.10;57.20;;;;;;5058568;28;20032;-73
2023/06/21 00:45:00;;;;;;;2.92;1.92;;;20.10;57.30;;;;;;5052742;28;20036;-73
2023/06/21 00:47:30;;;;;;;2.33;2.00;;;20.10;57.30;;;;;;5059478;28;20158;-73
2023/06/21 00:50:01;;;;;;;2.17;1.98;;;20.00;57.20;;;;;;5060556;28;20125;-72
2023/06/21 00:52:28;;;;;;;2.25;2.05;;;20.00;57.30;;;;;;5057585;28;20036;-74
2023/06/21 00:54:54;;;;;;;2.72;2.25;;;20.00;57.40;;;;;;5048273;28;20558;-73
2023/06/21 00:57:26;;;;;;;2.60;2.40;;;19.90;57.30;;;;;;5061369;28;20081;-74
2023/06/21 00:59:53;;;;;;;3.97;2.28;;;19.90;57.40;;;;;;5047740;28;20030;-72
2023/06/21 01:02:22;;;;;;;5.22;2.78;;;19.90;57.50;;;;;;5042534;28;20124;-73
2023/06/21 01:04:53;;;;;;;5.57;3.20;;;19.80;57.40;;;;;;5055155;28;20411;-73
2023/06/21 01:07:31;;;;;;;4.55;2.20;;;19.80;57.50;;;;;;5054603;28;20037;-72
2023/06/21 01:10:44;;;;;;;2.72;1.98;;;19.70;57.50;;;;;;5041816;28;20032;-73
2023/06/21 01:13:48;;;;;;;4.43;2.10;;;19.70;57.60;;;;;;5041935;28;20210;-74
2023/06/21 01:16:16;;;;;;;4.30;2.40;;;19.70;57.60;;;;;;5059477;28;20082;-72
2023/06/21 01:18:46;;;;;;;3.53;2.70;;;19.60;57.30;;;;;;5061165;28;20405;-72
2023/06/21 01:21:19;;;;;;;3.13;2.20;;;19.60;57.40;;;;;;5060204;28;20676;-73
2023/06/21 01:23:57;;;;;;;3.05;1.80;;;19.50;57.40;;;;;;5058659;28;20270;-73
2023/06/21 01:26:58;;;;;;;1.92;1.73;;;19.50;57.50;;;;;;5056158;28;20118;-72
2023/06/21 01:29:34;;;;;;;2.28;1.80;;;19.40;57.40;;;;;;5061891;28;20489;-73
2023/06/21 01:32:05;;;;;;;3.08;2.35;;;19.40;57.40;;;;;;5061891;28;20045;-72
2023/06/21 01:34:34;;;;;;;2.75;2.30;;;19.40;57.50;;;;;;5049949;28;20505;-74
2023/06/21 01:37:00;;;;;;;2.08;1.90;;;19.30;57.80;;;;;;5063944;28;20033;-72
2023/06/21 01:39:28;;;;;;;2.70;2.17;;;19.30;57.60;;;;;;5062302;28;20120;-73
2023/06/21 01:42:24;;;;;;;2.75;1.95;;;19.20;57.40;;;;;;5053929;28;21232;-73
2023/06/21 01:44:50;;;;;;;2.28;1.75;;;19.20;57.50;;;;;;5060970;28;20091;-75
2023/06/21 01:47:19;;;;;;;4.00;2.28;;;19.20;57.60;;;;;;5078974;22;20295;-80
2023/06/21 01:49:46;;;;;;;2.70;2.45;;;19.20;57.70;;;;;;5057007;28;20434;-80
2023/06/21 01:52:13;;;;;;;3.47;2.28;;;19.10;57.50;;;;;;5049699;28;20079;-80
2023/06/21 01:54:41;;;;;;;2.30;2.10;;;19.10;57.60;;;;;;5048551;28;20029;-80
2023/06/21 01:57:10;;;;;;;2.50;1.88;;;19.10;57.70;;;;;;5044771;28;20395;-80
2023/06/21 01:59:41;;;;;;;2.28;2.00;;;19.10;57.80;;;;;;5052837;28;20040;-80
2023/06/21 02:02:12;;;;;;;1.65;1.55;;;19.00;57.60;;;;;;5062456;28;20093;-80
2023/06/21 02:04:40;;;;;;;3.30;2.15;;;19.00;58.20;;;;;;5060036;28;20036;-80
2023/06/21 02:07:08;;;;;;;3.08;2.05;;;19.10;57.90;;;;;;5044810;28;20398;-80
2023/06/21 02:09:35;;;;;;;3.33;2.03;;;19.00;57.70;;;;;;5046625;28;20501;-81
2023/06/21 02:12:01;;;;;;;2.10;1.92;;;19.00;57.80;;;;;;5053446;28;20076;-81
2023/06/21 02:14:37;;;;;;;3.45;2.30;;;19.00;57.80;;;;;;5054265;28;20396;-81
2023/06/21 02:17:04;;;;;;;1.90;1.70;;;19.00;57.90;;;;;;5063875;28;20527;-81
2023/06/21 02:19:31;;;;;;;4.22;3.15;;;19.00;57.90;;;;;;5072336;28;20088;-81
2023/06/21 02:21:59;;;;;;;3.03;2.17;;;19.00;57.90;;;;;;5066738;28;20036;-81
2023/06/21 02:24:25;;;;;;;2.22;2.03;;;19.00;58.00;;;;;;5044912;28;20173;-81
2023/06/21 02:26:51;;;;;;;6.55;2.67;;;18.90;57.90;;;;;;5053708;28;20294;-80
2023/06/21 02:29:19;;;;;;;2.08;1.83;;;18.90;57.90;;;;;;5062466;28;20133;-81
2023/06/21 02:31:46;;;;;;;3.03;2.22;;;18.90;58.00;;;;;;5046266;28;20626;-80
2023/06/21 02:34:14;;;;;;;4.00;2.08;;;18.90;58.10;;;;;;5033165;28;20439;-81
2023/06/21 02:36:43;;;;;;;1.50;1.40;;;18.80;58.00;;;;;;5045410;28;20040;-80
2023/06/21 02:39:12;;;;;;;2.90;2.13;;;18.70;57.90;;;;;;5038657;28;20043;-81
2023/06/21 02:41:38;;;;;;;2.78;1.67;;;18.70;58.00;;;;;;5046982;28;20036;-80
2023/06/21 02:44:07;;;;;;;1.83;1.73;;;18.70;58.10;;;;;;5058575;28;20419;-81
2023/06/21 02:46:34;;;;;;;2.83;1.80;;;18.60;58.00;;;;;;5057136;28;20053;-82
2023/06/21 02:49:00;;;;;;;3.63;2.50;;;18.60;58.10;;;;;;5043582;28;20035;-81
2023/06/21 02:51:26;;;;;;;3.22;1.98;;;18.60;58.20;;;;;;5064301;28;20033;-81
2023/06/21 02:53:52;;;;;;;3.78;2.08;;;18.50;58.00;;;;;;5040446;28;20036;-81
2023/06/21 02:56:18;;;;;;;1.95;1.67;;;18.50;58.10;;;;;;5064816;28;20508;-81
2023/06/21 02:58:45;;;;;;;2.78;2.00;;;18.50;58.20;;;;;;5045708;28;20028;-81
2023/06/21 03:01:11;;;;;;;2.35;2.15;;;18.50;58.20;;;;;;5065529;28;20116;-81
2023/06/21 03:03:41;;;;;;;3.38;2.20;;;18.40;58.10;;;;;;5033414;28;20853;-81
2023/06/21 03:06:11;;;;;;;1.85;1.75;;;18.40;58.20;;;;;;5055557;28;20032;-80
2023/06/21 03:08:38;;;;;;;2.03;1.83;;;18.40;58.20;;;;;;5045641;28;20141;-81
2023/06/21 03:11:08;;;;;;;5.20;1.80;;;18.30;58.10;;;;;;5041437;28;20029;-81
2023/06/21 03:13:37;;;;;;;2.03;1.80;;;18.30;58.10;;;;;;5030090;28;20029;-81
2023/06/21 03:16:23;;;;;;;2.58;2.10;;;18.30;58.30;;;;;;5028764;28;20032;-81
2023/06/21 03:18:50;;;;;;;3.70;2.00;;;18.20;58.10;;;;;;5037555;28;20151;-81
2023/06/21 03:21:16;;;;;;;2.10;1.60;;;18.20;58.10;;;;;;5059781;28;20123;-81
2023/06/21 03:23:42;;;;;;;1.63;1.52;;;18.20;58.20;;;;;;5020818;28;20037;-81
2023/06/21 03:26:11;;;;;;;1.92;1.80;;;18.20;58.30;;;;;;5028616;28;20033;-81
2023/06/21 03:28:41;;;;;;;3.03;2.78;;;18.10;58.30;;;;;;5023708;28;20033;-81
2023/06/21 03:31:08;;;;;;;4.75;2.30;;;18.10;58.30;;;;;;5030359;28;20260;-81
2023/06/21 03:33:38;;;;;;;2.97;2.28;;;18.00;58.20;;;;;;5036295;28;20385;-81
2023/06/21 03:36:10;;;;;;;3.08;2.13;;;18.00;58.30;;;;;;5039321;28;20170;-81
2023/06/21 03:38:37;;;;;;;2.30;2.10;;;18.00;58.40;;;;;;5022212;28;20072;-83
2023/06/21 03:41:03;;;;;;;3.50;1.90;;;17.90;58.30;;;;;;5031145;28;20124;-83
2023/06/21 03:43:30;;;;;;;2.80;2.20;;;17.90;58.40;;;;;;5016373;28;20033;-83
2023/06/21 03:46:00;;;;;;;1.70;1.60;;;17.90;58.50;;;;;;5046135;28;20053;-83
2023/06/21 03:48:27;;;;;;;3.33;2.03;;;17.90;58.50;;;;;;5027414;28;20036;-83
2023/06/21 03:50:53;;;;;;;2.63;2.35;;;17.90;58.50;;;;;;5034264;28;20172;-83
2023/06/21 03:53:19;;;;;;;2.72;2.30;;;17.90;58.60;;;;;;5056637;28;20036;-83
2023/06/21 03:55:46;;;;;;;2.78;2.58;;;17.80;58.40;;;;;;5043466;28;20032;-83
2023/06/21 03:58:13;;;;;;;3.03;2.10;;;17.80;58.50;;;;;;5034548;28;20040;-83
2023/06/21 04:00:39;;;;;;;2.17;1.90;;;17.80;58.50;;;;;;5045823;28;20060;-80
2023/06/21 04:03:05;;;;;;;2.38;1.92;;;17.80;58.60;;;;;;5027112;28;20595;-81
2023/06/21 04:05:31;;;;;;;2.10;1.85;;;17.80;58.60;;;;;;5037525;28;20033;-80
2023/06/21 04:07:58;;;;;;;2.45;1.70;;;17.80;58.60;;;;;;5066888;28;20503;-81
2023/06/21 04:10:25;;;;;;;2.53;1.80;;;17.90;58.80;;;;;;5042017;28;20068;-80
2023/06/21 04:12:53;;;;;;;2.38;2.00;;;17.80;58.60;;;;;;5055156;28;20041;-81
2023/06/21 04:15:20;;;;;;;2.78;1.88;;;17.90;58.80;;;;;;5048890;28;20067;-81
2023/06/21 04:17:49;;;;;;;2.30;2.03;;;17.90;58.80;;;;;;5036012;28;20033;-81
2023/06/21 04:20:18;;;;;;;1.98;1.77;;;17.80;58.60;;;;;;5046821;28;20432;-81
2023/06/21 04:22:45;;;;;;;3.47;1.67;;;17.80;58.60;;;;;;5064342;28;20559;-81
2023/06/21 04:25:11;;;;;;;1.73;1.63;;;17.90;58.80;;;;;;5067433;28;20055;-80
2023/06/21 04:27:45;;;;;;;1.83;1.70;;;17.80;58.70;;;;;;5063626;28;20047;-81
2023/06/21 04:30:11;;;;;;;2.55;1.83;;;17.80;58.70;;;;;;5082819;28;20050;-82
2023/06/21 04:32:44;;;;;;;5.82;2.05;;;17.80;58.80;;;;;;5092545;28;20051;-81
2023/06/21 04:35:17;;;;;;;;;;;17.80;58.90;;;;;;5069724;28;20032;-81
2023/06/21 04:37:45;;;;;;;1.55;1.45;;;17.80;58.80;;;;;;5050714;28;20271;-81
2023/06/21 04:40:16;;;;;;;2.28;1.80;;;17.80;58.60;;;;;;5047807;28;20418;-81
2023/06/21 04:42:44;;;;;;;3.55;2.58;;;17.80;58.80;;;;;;5063694;28;20412;-81
2023/06/21 04:45:13;;;;;;;3.15;1.73;;;17.80;58.80;;;;;;5057719;28;20040;-80
2023/06/21 04:47:39;;;;;;;3.35;2.05;;;17.80;58.90;;;;;;5046334;28;20059;-81
2023/06/21 04:50:05;;;;;;;2.63;1.60;;;17.80;58.90;;;;;;5047089;28;20475;-80
2023/06/21 04:52:32;;;;;;;3.38;1.65;;;17.80;58.90;;;;;;5061904;28;20687;-81
2023/06/21 04:55:01;;;;;;;2.15;1.95;;;17.90;59.10;;;;;;5063145;28;20124;-80
2023/06/21 04:57:30;;;;;;;2.00;1.90;;;17.90;59.10;;;;;;5026398;28;20041;-81
2023/06/21 04:59:56;;;;;;;2.25;1.80;;;18.00;59.20;;;;;;5051325;28;20411;-81
2023/06/21 05:02:24;;;;;;;2.60;2.40;;;18.10;59.40;;;;;;5054759;28;20131;-81
2023/06/21 05:04:50;;;;;;;2.95;2.30;;;18.10;59.30;;;;;;5056843;28;20055;-79
2023/06/21 05:07:19;;;;;;;2.75;1.90;;;18.10;59.30;;;;;;5061967;28;20028;-81
2023/06/21 05:09:45;;;;;;;2.72;2.28;;;18.10;59.30;;;;;;5035122;28;20397;-79
2023/06/21 05:12:11;;;;;;;3.83;2.05;;;18.20;59.50;;;;;;5054006;28;20123;-79
2023/06/21 05:14:37;;;;;;;2.67;2.30;;;18.30;59.60;;;;;;5040467;28;20042;-82
2023/06/21 05:17:03;;;;;;;5.15;2.45;;;18.30;59.60;;;;;;5040835;28;20404;-80
2023/06/21 05:19:29;;;;;;;3.03;2.58;;;18.40;59.70;;;;;;5039648;28;20036;-81
2023/06/21 05:21:55;;;;;;;2.70;2.35;;;18.50;59.80;;;;;;5042409;28;20048;-80
2023/06/21 05:24:21;;;;;;;2.58;2.33;;;18.60;59.90;;;;;;5041222;28;20043;-81
2023/06/21 05:26:47;;;;;;;3.65;2.33;;;18.60;59.80;;;;;;5058987;28;20202;-79
2023/06/21 05:29:13;;;;;;;3.85;2.53;;;18.70;60.00;;;;;;5058462;28;20044;-78
2023/06/21 05:31:43;;;;;;;3.17;2.50;;;18.80;60.10;;;;;;5057816;28;20285;-78
2023/06/21 05:34:10;;;;;;;3.25;2.65;;;18.90;60.30;;;;;;5058755;28;20340;-78
2023/06/21 05:36:36;;;;;;;3.03;2.75;;;19.00;60.30;;;;;;5046650;28;20032;-79
2023/06/21 05:39:03;;;;;;;3.45;2.97;;;19.00;60.20;;;;;;5035504;28;20358;-78
2023/06/21 05:41:29;;;;;;;3.42;2.45;;;19.20;60.40;;;;;;5058718;28;20117;-79
2023/06/21 05:43:55;;;;;;;2.30;2.10;;;19.20;60.30;;;;;;5054216;28;20547;-79
2023/06/21 05:46:24;;;;;;;2.88;2.15;;;19.30;60.40;;;;;;5057684;28;20052;-78
2023/06/21 05:48:50;;;;;;;3.08;2.22;;;19.40;60.50;;;;;;5057101;28;20043;-77
2023/06/21 05:51:16;;;;;;;2.88;2.50;;;19.50;60.60;;;;;;5048716;28;20029;-79
2023/06/21 05:53:42;;;;;;;2.95;2.75;;;19.50;60.50;;;;;;5056902;28;20530;-79
2023/06/21 05:56:08;;;;;;;4.07;2.30;;;19.60;60.70;;;;;;5044687;28;20025;-80
2023/06/21 05:58:34;;;;;;;3.55;2.67;;;19.70;61.00;;;;;;5051348;28;20075;-80
2023/06/21 06:01:06;;;;;;;4.38;2.70;;;19.70;61.50;;;;;;5062670;28;20487;-81
2023/06/21 06:03:35;;;;;;;5.65;3.05;;;19.80;62.20;;;;;;5040702;28;20045;-80
2023/06/21 06:06:08;;;;;;;3.30;2.50;;;19.90;62.70;;;;;;5052308;28;20055;-80
2023/06/21 06:08:34;;;;;;;3.03;2.55;;;20.10;63.50;;;;;;5039417;28;20063;-81
2023/06/21 06:11:00;;;;;;;2.65;2.40;;;20.20;64.00;;;;;;5051600;28;20067;-81
2023/06/21 06:13:32;;;;;;;3.83;2.80;;;20.30;64.40;;;;;;5057161;28;20307;-80
2023/06/21 06:15:58;;;;;;;3.70;3.00;;;20.50;64.90;;;;;;5059595;28;20256;-80
2023/06/21 06:18:24;;;;;;;4.95;3.00;;;20.60;65.30;;;;;;5057858;28;20051;-80
2023/06/21 06:20:50;;;;;;;5.50;2.97;;;20.80;65.90;;;;;;5059393;28;20033;-80
2023/06/21 06:23:16;;;;;;;4.57;3.28;;;20.90;66.30;;;;;;5051244;28;20059;-79
2023/06/21 06:25:42;;;;;;;3.20;2.70;;;21.00;66.60;;;;;;5050140;28;20519;-79
2023/06/21 06:28:11;;;;;;;3.17;2.83;;;21.10;66.80;;;;;;5032747;28;20078;-80
2023/06/21 06:30:40;;;;;;;3.70;2.97;;;21.20;66.90;;;;;;5059045;28;20028;-80
2023/06/21 06:33:06;;;;;;;2.97;2.60;;;21.30;67.00;;;;;;5040302;28;20583;-81
2023/06/21 06:35:34;;;;;;;5.00;3.40;;;21.40;67.20;;;;;;5036271;28;20361;-80
2023/06/21 06:38:01;;;;;;;3.00;2.70;;;21.40;67.20;;;;;;5049226;28;20032;-80
2023/06/21 06:40:26;;;;;;;2.45;2.20;;;21.50;67.40;;;;;;5046879;28;20097;-80
2023/06/21 06:42:53;;;;;;;5.90;3.42;;;21.60;67.40;;;;;;5050857;28;20135;-80
2023/06/21 06:45:19;;;;;;;3.15;2.60;;;21.70;67.50;;;;;;5053202;28;20033;-79
2023/06/21 06:47:45;;;;;;;4.32;2.60;;;21.80;67.50;;;;;;5047119;28;20067;-79
2023/06/21 06:50:11;;;;;;;2.90;2.58;;;21.80;67.30;;;;;;5028150;28;20033;-79
2023/06/21 06:52:37;;;;;;;3.10;2.80;;;22.00;67.50;;;;;;5015992;28;20028;-79
2023/06/21 06:55:04;;;;;;;6.43;3.17;;;22.00;67.30;;;;;;5049470;28;20036;-79
2023/06/21 06:57:30;;;;;;;3.15;2.08;;;22.20;67.40;;;;;;5046755;28;20388;-79
2023/06/21 06:59:56;;;;;;;2.88;2.17;;;22.20;67.20;;;;;;5035189;28;20166;-80
2023/06/21 07:02:22;;;;;;;2.92;2.47;;;22.30;67.10;;;;;;5025719;28;20096;-80
2023/06/21 07:04:48;;;;;;;2.50;2.30;;;22.50;67.00;;;;;;5053585;28;20037;-80
2023/06/21 07:07:14;;;;;;;3.22;2.50;;;22.70;66.80;;;;;;5050945;28;20506;-79
2023/06/21 07:09:40;;;;;;;3.00;1.95;;;22.90;66.50;;;;;;5034786;28;20136;-78
2023/06/21 07:12:07;;;;;;;2.28;2.05;;;23.50;66.20;;;;;;5036105;28;20028;-79
2023/06/21 07:14:33;;;;;;;2.55;2.15;;;24.10;65.50;;;;;;5035411;28;20021;-79
2023/06/21 07:16:59;;;;;;;2.10;1.88;;;24.90;65.00;;;;;;5054144;28;20338;-78
2023/06/21 07:19:25;;;;;;;2.97;2.13;;;25.50;63.70;;;;;;5050097;28;20400;-78
2023/06/21 07:21:51;;;;;;;4.38;2.20;;;26.00;62.70;;;;;;5052304;28;20040;-79
2023/06/21 07:24:17;;;;;;;2.28;1.88;;;26.30;62.10;;;;;;5030112;28;20033;-78
2023/06/21 07:26:43;;;;;;;2.83;2.33;;;26.40;61.70;;;;;;5024673;28;20036;-78
2023/06/21 07:29:09;;;;;;;3.47;1.90;;;26.60;61.40;;;;;;5050025;28;20053;-78
2023/06/21 07:31:35;;;;;;;2.97;2.30;;;26.80;61.00;;;;;;5054435;28;20033;-79
2023/06/21 07:34:03;;;;;;;2.38;1.85;;;26.80;60.80;;;;;;5050177;28;20080;-79
2023/06/21 07:36:29;;;;;;;2.00;1.77;;;27.00;60.70;;;;;;5052139;28;20036;-80
2023/06/21 07:38:56;;;;;;;2.83;2.00;;;27.10;59.60;;;;;;5052250;28;20039;-80
2023/06/21 07:41:24;;;;;;;2.35;2.13;;;27.10;59.50;;;;;;5055142;28;20187;-79
2023/06/21 07:43:53;;;;;;;2.88;1.73;;;27.00;59.50;;;;;;5053597;28;20032;-80
2023/06/21 07:46:20;;;;;;;5.30;2.47;;;26.90;59.60;;;;;;5035477;28;20093;-80
2023/06/21 07:48:49;;;;;;;2.17;1.85;;;27.20;59.40;;;;;;5038486;28;20043;-79
2023/06/21 07:51:15;;;;;;;1.85;1.67;;;28.00;58.10;;;;;;5055005;28;20028;-79
2023/06/21 07:53:41;;;;;;;1.90;1.80;;;29.00;56.30;;;;;;5049237;28;20041;-79
2023/06/21 07:56:07;;;;;;;2.45;1.85;;;29.50;54.60;;;;;;5057466;28;20033;-80
2023/06/21 07:58:36;;;;;;;2.05;1.80;;;29.70;54.20;;;;;;5038085;28;20055;-79
2023/06/21 08:01:02;;;;;;;2.03;1.83;;;29.90;53.70;;;;;;5031398;28;20037;-79
2023/06/21 08:03:28;;;;;;;1.55;1.45;;;29.90;53.80;;;;;;5056409;28;20044;-79
2023/06/21 08:05:54;;;;;;;4.47;2.00;;;30.10;53.60;;;;;;5049962;28;20102;-78
2023/06/21 08:08:23;;;;;;;3.28;1.75;;;30.00;53.50;;;;;;5070364;28;20280;-79
2023/06/21 08:10:49;;;;;;;3.65;1.90;;;29.70;53.50;;;;;;5073748;28;20359;-80
2023/06/21 08:13:18;;;;;;;2.08;1.58;;;29.50;53.90;;;;;;5075523;28;20125;-80
2023/06/21 08:15:45;;;;;;;1.63;1.52;;;29.40;54.20;;;;;;5079387;28;20184;-80
2023/06/21 08:18:11;;;;;;;1.63;1.45;;;29.20;54.30;;;;;;5079006;28;20035;-79
2023/06/21 08:20:40;;;;;;;2.15;1.63;;;29.20;54.30;;;;;;5059283;28;20048;-80
2023/06/21 08:23:07;;;;;;;1.40;1.30;;;29.30;54.30;;;;;;5025716;28;20534;-79
2023/06/21 08:25:34;;;;;;;2.60;1.48;;;29.40;54.00;;;;;;5035980;28;20029;-83
2023/06/21 08:28:03;;;;;;;2.00;1.80;;;29.40;53.80;;;;;;5052359;28;20048;-80
2023/06/21 08:30:32;;;;;;;2.78;1.70;;;29.40;53.80;;;;;;5043623;28;20036;-80
2023/06/21 08:32:59;;;;;;;2.13;1.23;;;29.30;53.80;;;;;;5026512;28;20058;-82
2023/06/21 08:35:25;;;;;;;1.77;1.50;;;29.40;53.60;;;;;;5038099;28;20384;-80
2023/06/21 08:37:59;;;;;;;2.38;1.80;;;29.30;53.40;;;;;;5060952;28;20122;-81
2023/06/21 08:40:34;;;;;;;2.30;1.80;;;29.30;53.40;;;;;;5035215;28;20029;-81
2023/06/21 08:43:01;;;;;;;2.22;1.55;;;29.20;53.20;;;;;;5012988;28;20338;-80
2023/06/21 08:45:30;;;;;;;1.92;1.13;;;29.30;53.30;;;;;;5044417;28;20043;-81
2023/06/21 08:48:01;;;;;;;1.63;1.48;;;29.50;53.20;;;;;;5026286;28;20053;-81
2023/06/21 08:50:29;;;;;;;1.92;1.42;;;29.70;52.80;;;;;;5035436;28;20465;-81
2023/06/21 08:53:00;;;;;;;1.73;1.40;;;29.90;52.50;;;;;;5020780;28;20529;-79
2023/06/21 08:55:31;;;;;;;2.08;1.52;;;30.20;52.10;;;;;;5037610;28;20583;-80
2023/06/21 08:58:03;;;;;;;3.10;1.73;;;30.40;51.60;;;;;;5036843;28;20048;-80
2023/06/21 09:00:48;;;;;;;2.00;1.70;;;30.70;51.20;;;;;;5028558;28;20029;-90
2023/06/21 09:03:23;;;;;;;2.25;1.45;;;30.80;51.50;;;;;;5031091;28;20561;-81
2023/06/21 09:05:58;;;;;;;1.27;1.17;;;31.10;50.70;;;;;;5036216;28;20028;-80
2023/06/21 09:08:26;;;;;;;1.55;1.25;;;31.30;50.30;;;;;;5014873;28;20033;-81
2023/06/21 09:11:02;;;;;;;1.48;1.10;;;31.50;50.10;;;;;;5032975;28;20503;-82
2023/06/21 09:13:31;;;;;;;2.13;1.25;;;31.70;49.70;;;;;;5042977;28;20569;-81
2023/06/21 09:15:58;;;;;;;2.15;1.10;;;31.90;49.40;;;;;;5037490;28;20487;-81
2023/06/21 09:18:35;;;;;;;1.90;1.38;;;32.20;49.10;;;;;;5028613;28;20040;-81
2023/06/21 09:21:03;;;;;;;2.65;1.20;;;32.30;48.70;;;;;;5037813;28;20034;-81
2023/06/21 09:23:39;;;;;;;1.50;1.38;;;32.50;48.50;;;;;;5033862;28;20052;-82
2023/06/21 09:26:10;;;;;;;1.55;1.42;;;32.70;48.30;;;;;;5035541;28;20033;-81
2023/06/21 09:28:37;;;;;;;2.00;1.25;;;32.90;48.70;;;;;;5028302;28;20032;-80
2023/06/21 09:31:03;;;;;;;2.13;1.25;;;33.00;47.70;;;;;;5035172;28;20044;-80
2023/06/21 09:33:38;;;;;;;2.58;1.40;;;33.20;47.50;;;;;;5022671;28;20041;-82
2023/06/21 09:36:11;;;;;;;;;;;33.30;47.20;;;;;;5036664;28;20112;-81
2023/06/21 09:38:38;;;;;;;1.92;1.02;;;33.40;47.20;;;;;;5032650;28;19920;-82
2023/06/21 09:41:07;;;;;;;1.73;1.38;;;33.50;47.10;;;;;;5027651;28;20036;-82
2023/06/21 09:43:44;;;;;;;1.75;1.15;;;33.60;46.80;;;;;;5029492;28;20110;-81
2023/06/21 09:46:13;;;;;;;1.50;1.40;;;33.70;46.60;;;;;;5035921;28;20345;-81
2023/06/21 09:48:51;;;;;;;1.30;1.20;;;33.80;46.50;;;;;;5040285;28;20044;-81
2023/06/21 09:51:33;;;;;;;1.20;1.10;;;33.90;46.30;;;;;;5061357;28;20041;-83
2023/06/21 09:54:17;;;;;;;1.20;1.10;;;34.10;46.10;;;;;;5033508;28;20037;-82
2023/06/21 09:56:45;;;;;;;1.92;1.30;;;34.30;45.80;;;;;;5041331;28;20088;-81
2023/06/21 09:59:20;;;;;;;1.73;1.35;;;34.40;46.00;;;;;;5038315;28;20392;-81
2023/06/21 10:01:49;;;;;;;1.20;1.10;;;34.60;45.20;;;;;;5047625;28;20056;-80
2023/06/21 10:04:17;;;;;;;2.00;1.30;;;34.70;44.90;;;;;;5029821;28;20855;-81
2023/06/21 10:07:03;;;;;;;1.30;1.20;;;34.80;44.70;;;;;;5027347;28;20395;-81
2023/06/21 10:09:37;;;;;;;2.05;1.02;;;35.00;44.50;;;;;;5039875;28;20083;-82
2023/06/21 10:12:14;;;;;;;1.35;1.25;;;35.10;44.30;;;;;;5027755;28;20487;-82
2023/06/21 10:14:43;;;;;;;2.83;1.27;;;35.20;44.20;;;;;;5069891;28;20047;-81
2023/06/21 10:17:17;;;;;;;1.67;1.25;;;35.30;44.00;;;;;;5039723;28;20105;-81
2023/06/21 10:19:49;;;;;;;2.28;1.42;;;35.40;43.80;;;;;;5058181;28;20051;-81
2023/06/21 10:22:21;;;;;;;;;;;35.50;43.60;;;;;;5022859;28;20045;-82
2023/06/21 10:24:55;;;;;;;;;;;35.60;43.60;;;;;;5028782;28;19913;-81
2023/06/21 10:27:45;;;;;;;1.50;1.40;;;35.70;43.80;;;;;;5032883;28;19932;-82
2023/06/21 10:30:19;;;;;;;1.50;1.40;;;35.60;43.80;;;;;;5041536;28;20037;-82
2023/06/21 10:32:50;;;;;;;1.75;1.63;;;35.50;43.70;;;;;;5059774;28;20078;-82
2023/06/21 10:35:26;;;;;;;1.13;1.02;;;35.70;43.60;;;;;;5040521;28;20050;-82
2023/06/21 10:38:11;;;;;;;3.17;1.48;;;35.90;43.20;;;;;;5040410;28;20093;-81
2023/06/21 10:40:52;;;;;;;2.22;1.45;;;36.20;42.70;;;;;;5049288;28;20056;-84
2023/06/21 10:43:37;;;;;;;1.77;1.33;;;36.50;42.40;;;;;;5053177;28;20063;-84
2023/06/21 10:46:05;;;;;;;1.42;1.25;;;36.70;42.10;;;;;;5049210;28;20045;-85
2023/06/21 10:48:51;;;;;;;2.13;1.30;;;36.90;41.80;;;;;;5049314;28;20047;-85
2023/06/21 10:51:34;;;;;;;1.38;1.27;;;37.20;41.60;;;;;;5028236;28;20032;-83
2023/06/21 10:54:19;;;;;;;1.98;1.50;;;37.40;41.10;;;;;;5030146;28;20043;-84
2023/06/21 10:56:49;;;;;;;1.55;1.35;;;37.60;41.00;;;;;;5052991;28;20040;-83
2023/06/21 10:59:32;;;;;;;1.65;1.17;;;37.70;40.70;;;;;;5039419;28;20306;-81
2023/06/21 11:01:58;;;;;;;1.38;1.20;;;37.60;40.60;;;;;;5044253;28;20094;-81
2023/06/21 11:04:27;;;;;;;1.48;1.30;;;37.40;40.60;;;;;;5054363;28;20380;-81
2023/06/21 11:07:00;;;;;;;2.72;1.50;;;37.10;40.70;;;;;;5058449;28;20050;-80
2023/06/21 11:09:26;;;;;;;1.65;1.55;;;36.70;41.00;;;;;;5057799;28;20460;-81
2023/06/21 11:11:53;;;;;;;2.92;1.58;;;36.60;41.30;;;;;;5027731;28;20033;-81
2023/06/21 11:14:30;;;;;;;1.60;1.50;;;36.40;41.20;;;;;;5038081;28;20124;-81
2023/06/21 11:17:15;;;;;;;2.08;1.55;;;36.30;41.20;;;;;;5048591;28;20033;-81
2023/06/21 11:19:43;;;;;;;2.00;1.80;;;36.10;41.30;;;;;;5026974;28;20171;-81
2023/06/21 11:22:24;;;;;;;1.88;1.60;;;36.00;41.50;;;;;;5016640;28;20119;-81
2023/06/21 11:24:58;;;;;;;1.85;1.52;;;35.90;41.40;;;;;;5037239;28;20189;-81
2023/06/21 11:27:27;;;;;;;2.08;1.67;;;35.70;41.70;;;;;;5048747;28;20463;-80
2023/06/21 11:30:17;;;;;;;1.40;1.30;;;35.60;42.10;;;;;;5058579;28;20047;-80
2023/06/21 11:33:02;;;;;;;1.60;1.20;;;35.60;41.70;;;;;;5057883;28;20558;-80
2023/06/21 11:35:46;;;;;;;1.60;1.50;;;35.60;41.90;;;;;;5035295;28;20204;-79
2023/06/21 11:38:46;;;;;;;1.92;1.73;;;35.70;41.60;;;;;;4950958;28;20326;-80
2023/06/21 11:41:41;;;;;;;2.17;1.45;;;35.60;41.70;;;;;;5040123;28;20329;-80
2023/06/21 11:44:08;;;;;;;3.37;1.80;;;35.20;41.60;;;;;;5018851;28;20024;-80
2023/06/21 11:46:39;;;;;;;2.42;1.75;;;35.00;42.00;;;;;;5052513;28;20499;-79
2023/06/21 11:49:30;;;;;;;1.58;1.48;;;34.80;42.10;;;;;;5023112;28;20033;-80
2023/06/21 11:52:05;;;;;;;2.50;1.90;;;34.80;42.30;;;;;;5035157;28;20048;-80
2023/06/21 11:54:49;;;;;;;1.60;1.50;;;35.10;42.20;;;;;;5048555;28;20032;-81
2023/06/21 11:57:22;;;;;;;2.65;1.60;;;35.50;41.90;;;;;;5028874;28;20041;-80
2023/06/21 11:59:55;;;;;;;;;;;35.80;41.60;;;;;;5023805;28;20095;-82
2023/06/21 12:02:30;;;;;;;1.85;1.73;;;35.90;41.60;;;;;;5021127;28;20225;-81
2023/06/21 12:04:56;;;;;;;1.75;1.65;;;36.00;41.50;;;;;;5042490;28;20036;-80
2023/06/21 12:07:41;;;;;;;2.42;1.52;;;36.00;41.50;;;;;;5059751;28;20047;-81
2023/06/21 12:10:19;;;;;;;1.65;1.52;;;36.00;41.50;;;;;;5032690;28;20111;-81
2023/06/21 12:12:44;;;;;;;1.70;1.60;;;35.90;41.70;;;;;;5060023;28;20514;-80
2023/06/21 12:15:11;;;;;;;2.72;1.50;;;35.90;41.80;;;;;;5042973;28;20454;-82
2023/06/21 12:17:55;;;;;;;1.50;1.40;;;35.80;41.80;;;;;;5061006;28;20427;-81
2023/06/21 12:20:21;;;;;;;1.60;1.30;;;35.90;42.00;;;;;;5030874;28;20067;-82
2023/06/21 12:23:07;;;;;;;1.50;1.40;;;35.90;41.90;;;;;;5018383;28;20047;-82
2023/06/21 12:25:48;;;;;;;2.08;1.80;;;36.00;41.90;;;;;;5029132;28;20045;-82
2023/06/21 12:28:16;;;;;;;8.35;1.90;;;36.00;41.80;;;;;;5039844;28;20113;-83
2023/06/21 12:31:06;;;;;;;1.65;1.55;;;36.00;41.90;;;;;;5041648;28;20430;-81
2023/06/21 12:33:40;;;;;;;1.40;1.30;;;35.80;41.90;;;;;;5055972;28;20205;-79
2023/06/21 12:36:20;;;;;;;4.10;1.60;;;35.70;42.10;;;;;;5036899;28;20089;-81
2023/06/21 12:39:07;;;;;;;2.67;1.55;;;35.50;42.10;;;;;;5058883;28;20538;-82
2023/06/21 12:41:34;;;;;;;1.70;1.60;;;35.40;42.20;;;;;;5037030;28;20043;-81
2023/06/21 12:44:07;;;;;;;3.78;2.30;;;35.40;42.20;;;;;;5060919;28;20468;-82
2023/06/21 12:46:53;;;;;;;2.00;1.80;;;35.40;42.20;;;;;;5053587;28;20137;-81
2023/06/21 12:49:22;;;;;;;2.90;1.90;;;35.40;42.10;;;;;;5060133;28;20032;-81
2023/06/21 12:51:54;;;;;;;1.75;1.65;;;35.40;42.10;;;;;;5031742;28;20043;-82
2023/06/21 12:54:36;;;;;;;1.80;1.70;;;35.30;42.20;;;;;;5052162;28;20440;-81
2023/06/21 12:57:02;;;;;;;2.35;1.73;;;35.20;42.30;;;;;;5036440;28;20322;-80
2023/06/21 12:59:29;;;;;;;1.70;1.60;;;35.10;42.40;;;;;;5039863;28;20094;-81
2023/06/21 13:02:26;;;;;;;;;;;34.90;42.60;;;;;;5022608;28;20104;-80
2023/06/21 13:04:53;;;;;;;2.47;1.67;;;34.60;42.90;;;;;;5054593;28;20010;-80